sensor_id;sensor_type;location;lat;lon;timestamp;pressure;altitude;pressure_sealevel;temperature;humidity
8280;BME280;8335;42.646;23.380;2022-11-28T00:02:21;94934.34;;;2.54;100.00
8280;BME280;8335;42.646;23.380;2022-11-28T00:04:50;94945.19;;;2.56;100.00
8280;BME280;8335;42.646;23.380;2022-11-28T00:07:17;94938.56;;;2.52;100.00
8280;BME280;8335;42.646;23.380;2022-11-28T00:09:45;94937.84;;;2.44;100.00
8280;BME280;8335;42.646;23.380;2022-11-28T00:12:11;94936.97;;;2.46;100.00
8280;BME280;8335;42.646;23.380;2022-11-28T00:14:38;94936.81;;;2.57;100.00
8280;BME280;8335;42.646;23.380;2022-11-28T00:17:05;94929.16;;;2.66;100.00
8280;BME280;8335;42.646;23.380;2022-11-28T00:19:32;94925.78;;;2.67;100.00
8280;BME280;8335;42.646;23.380;2022-11-28T00:21:59;94923.28;;;2.66;100.00
8280;BME280;8335;42.646;23.380;2022-11-28T00:24:25;94927.47;;;2.64;100.00
8280;BME280;8335;42.646;23.380;2022-11-28T00:26:54;94934.97;;;2.68;100.00
8280;BME280;8335;42.646;23.380;2022-11-28T00:29:20;94933.25;;;2.70;100.00
8280;BME280;8335;42.646;23.380;2022-11-28T00:31:47;94931.50;;;2.75;100.00
8280;BME280;8335;42.646;23.380;2022-11-28T00:34:14;94932.31;;;2.79;100.00
8280;BME280;8335;42.646;23.380;2022-11-28T00:36:43;94933.16;;;2.80;100.00
8280;BME280;8335;42.646;23.380;2022-11-28T00:39:09;94928.16;;;2.76;100.00
8280;BME280;8335;42.646;23.380;2022-11-28T00:41:36;94933.22;;;2.75;100.00
8280;BME280;8335;42.646;23.380;2022-11-28T00:44:04;94925.72;;;2.72;100.00
8280;BME280;8335;42.646;23.380;2022-11-28T00:46:31;94928.22;;;2.72;100.00
8280;BME280;8335;42.646;23.380;2022-11-28T00:48:58;94929.88;;;2.73;100.00
8280;BME280;8335;42.646;23.380;2022-11-28T00:51:27;94934.00;;;2.77;100.00
8280;BME280;8335;42.646;23.380;2022-11-28T00:53:57;94932.31;;;2.78;100.00
8280;BME280;8335;42.646;23.380;2022-11-28T00:56:27;94929.06;;;2.71;100.00
8280;BME280;8335;42.646;23.380;2022-11-28T00:58:54;94927.38;;;2.73;100.00
8280;BME280;8335;42.646;23.380;2022-11-28T01:01:25;94934.91;;;2.71;100.00
8280;BME280;8335;42.646;23.380;2022-11-28T01:03:54;94922.47;;;2.65;100.00
8280;BME280;8335;42.646;23.380;2022-11-28T01:06:22;94925.72;;;2.70;100.00
8280;BME280;8335;42.646;23.380;2022-11-28T01:08:49;94929.91;;;2.70;100.00
8280;BME280;8335;42.646;23.380;2022-11-28T01:11:17;94919.25;;;2.54;100.00
8280;BME280;8335;42.646;23.380;2022-11-28T01:13:44;94920.13;;;2.52;100.00
8280;BME280;8335;42.646;23.380;2022-11-28T01:16:11;94919.25;;;2.54;100.00
8280;BME280;8335;42.646;23.380;2022-11-28T01:18:39;94922.63;;;2.53;100.00
8280;BME280;8335;42.646;23.380;2022-11-28T01:21:06;94923.53;;;2.47;100.00
8280;BME280;8335;42.646;23.380;2022-11-28T01:23:34;94914.28;;;2.49;100.00
8280;BME280;8335;42.646;23.380;2022-11-28T01:26:01;94921.88;;;2.46;100.00
8280;BME280;8335;42.646;23.380;2022-11-28T01:28:28;94903.59;;;2.35;100.00
8280;BME280;8335;42.646;23.380;2022-11-28T01:30:55;94906.94;;;2.34;100.00
8280;BME280;8335;42.646;23.380;2022-11-28T01:33:22;94916.91;;;2.43;100.00
8280;BME280;8335;42.646;23.380;2022-11-28T01:35:57;94921.06;;;2.44;100.00
8280;BME280;8335;42.646;23.380;2022-11-28T01:38:24;94905.25;;;2.38;100.00
8280;BME280;8335;42.646;23.380;2022-11-28T01:40:52;94912.03;;;2.31;100.00
8280;BME280;8335;42.646;23.380;2022-11-28T01:43:19;94906.28;;;2.23;100.00
8280;BME280;8335;42.646;23.380;2022-11-28T01:45:46;94891.31;;;2.14;100.00
8280;BME280;8335;42.646;23.380;2022-11-28T01:48:17;94896.25;;;2.20;100.00
8280;BME280;8335;42.646;23.380;2022-11-28T01:50:47;94898.84;;;2.14;100.00
8280;BME280;8335;42.646;23.380;2022-11-28T01:53:17;94896.28;;;2.18;100.00
8280;BME280;8335;42.646;23.380;2022-11-28T01:55:48;94896.19;;;2.26;100.00
8280;BME280;8335;42.646;23.380;2022-11-28T01:58:17;94897.06;;;2.24;100.00
8280;BME280;8335;42.646;23.380;2022-11-28T02:00:45;94892.06;;;2.20;100.00
8280;BME280;8335;42.646;23.380;2022-11-28T02:03:17;94864.06;;;1.86;100.00
8280;BME280;8335;42.646;23.380;2022-11-28T02:05:48;94891.31;;;2.14;100.00
8280;BME280;8335;42.646;23.380;2022-11-28T02:08:17;94891.25;;;2.22;100.00
8280;BME280;8335;42.646;23.380;2022-11-28T02:10:57;94886.19;;;2.23;100.00
8280;BME280;8335;42.646;23.380;2022-11-28T02:13:37;94896.19;;;2.26;100.00
8280;BME280;8335;42.646;23.380;2022-11-28T02:16:30;94876.13;;;2.23;100.00
8280;BME280;8335;42.646;23.380;2022-11-28T02:19:23;94884.34;;;2.36;100.00
8280;BME280;8335;42.646;23.380;2022-11-28T02:22:00;94877.63;;;2.36;100.00
8280;BME280;8335;42.646;23.380;2022-11-28T02:24:45;94877.63;;;2.36;100.00
8280;BME280;8335;42.646;23.380;2022-11-28T02:30:18;94880.28;;;2.26;100.00
8280;BME280;8335;42.646;23.380;2022-11-28T02:33:12;94883.00;;;2.10;100.00
8280;BME280;8335;42.646;23.380;2022-11-28T02:35:48;94878.03;;;2.04;100.00
8280;BME280;8335;42.646;23.380;2022-11-28T02:38:21;94877.28;;;1.98;100.00
8280;BME280;8335;42.646;23.380;2022-11-28T02:40:58;94872.28;;;1.98;100.00
8280;BME280;8335;42.646;23.380;2022-11-28T02:43:30;94872.31;;;1.95;100.00
8280;BME280;8335;42.646;23.380;2022-11-28T02:46:02;94870.63;;;1.95;100.00
8280;BME280;8335;42.646;23.380;2022-11-28T02:48:35;94882.38;;;1.93;100.00
8280;BME280;8335;42.646;23.380;2022-11-28T02:51:08;94872.38;;;1.90;100.00
8280;BME280;8335;42.646;23.380;2022-11-28T02:53:36;94878.34;;;1.81;100.00
8280;BME280;8335;42.646;23.380;2022-11-28T02:56:03;94882.44;;;1.88;100.00
8280;BME280;8335;42.646;23.380;2022-11-28T02:58:30;94886.56;;;1.92;100.00
8280;BME280;8335;42.646;23.380;2022-11-28T03:00:58;94883.22;;;1.93;100.00
8280;BME280;8335;42.646;23.380;2022-11-28T03:06:26;94883.88;;;2.06;100.00
8280;BME280;8335;42.646;23.380;2022-11-28T03:09:07;94888.88;;;2.09;100.00
8280;BME280;8335;42.646;23.380;2022-11-28T03:11:46;94885.47;;;2.15;100.00
8280;BME280;8335;42.646;23.380;2022-11-28T03:14:27;94891.22;;;2.20;100.00
8280;BME280;8335;42.646;23.380;2022-11-28T03:17:05;94891.25;;;2.18;100.00
8280;BME280;8335;42.646;23.380;2022-11-28T03:19:37;94889.53;;;2.20;100.00
8280;BME280;8335;42.646;23.380;2022-11-28T03:22:11;94883.69;;;2.20;100.00
8280;BME280;8335;42.646;23.380;2022-11-28T03:24:44;94885.34;;;2.21;100.00
8280;BME280;8335;42.646;23.380;2022-11-28T03:27:16;94891.13;;;2.29;100.00
8280;BME280;8335;42.646;23.380;2022-11-28T03:29:45;94890.28;;;2.30;100.00
8280;BME280;8335;42.646;23.380;2022-11-28T03:32:17;94887.69;;;2.35;100.00
8280;BME280;8335;42.646;23.380;2022-11-28T03:34:49;94891.84;;;2.37;100.00
8280;BME280;8335;42.646;23.380;2022-11-28T03:37:21;94885.16;;;2.35;100.00
8280;BME280;8335;42.646;23.380;2022-11-28T03:39:58;94886.03;;;2.34;100.00
8280;BME280;8335;42.646;23.380;2022-11-28T03:42:28;94896.91;;;2.34;100.00
8280;BME280;8335;42.646;23.380;2022-11-28T03:44:58;94895.31;;;2.30;100.00
8280;BME280;8335;42.646;23.380;2022-11-28T03:47:30;94888.63;;;2.29;100.00
8280;BME280;8335;42.646;23.380;2022-11-28T03:50:01;94888.59;;;2.31;100.00
8280;BME280;8335;42.646;23.380;2022-11-28T03:52:35;94882.75;;;2.30;100.00
8280;BME280;8335;42.646;23.380;2022-11-28T03:55:06;94886.09;;;2.29;100.00
8280;BME280;8335;42.646;23.380;2022-11-28T03:57:38;94892.00;;;2.25;100.00
8280;BME280;8335;42.646;23.380;2022-11-28T04:00:10;94890.44;;;2.16;100.00
8280;BME280;8335;42.646;23.380;2022-11-28T04:02:43;94888.88;;;2.09;100.00
8280;BME280;8335;42.646;23.380;2022-11-28T04:05:18;94879.69;;;2.05;100.00
8280;BME280;8335;42.646;23.380;2022-11-28T04:07:52;94884.66;;;2.11;100.00
8280;BME280;8335;42.646;23.380;2022-11-28T04:10:27;94885.47;;;2.12;100.00
8280;BME280;8335;42.646;23.380;2022-11-28T04:12:59;94871.25;;;2.12;100.00
8280;BME280;8335;42.646;23.380;2022-11-28T04:15:32;94872.78;;;2.24;100.00
8280;BME280;8335;42.646;23.380;2022-11-28T04:18:04;94876.88;;;2.30;100.00
8280;BME280;8335;42.646;23.380;2022-11-28T04:20:37;94875.16;;;2.32;100.00
8280;BME280;8335;42.646;23.380;2022-11-28T04:23:10;94880.97;;;2.37;100.00
8280;BME280;8335;42.646;23.380;2022-11-28T04:25:41;94871.84;;;2.30;100.00
8280;BME280;8335;42.646;23.380;2022-11-28T04:28:15;94880.19;;;2.32;100.00
8280;BME280;8335;42.646;23.380;2022-11-28T04:30:45;94889.47;;;2.27;100.00
8280;BME280;8335;42.646;23.380;2022-11-28T04:33:15;94886.22;;;2.18;100.00
8280;BME280;8335;42.646;23.380;2022-11-28T04:35:46;94891.31;;;2.15;100.00
8280;BME280;8335;42.646;23.380;2022-11-28T04:38:17;94895.56;;;2.10;100.00
8280;BME280;8335;42.646;23.380;2022-11-28T04:40:49;94889.66;;;2.13;100.00
8280;BME280;8335;42.646;23.380;2022-11-28T04:43:20;94873.84;;;2.05;100.00
8280;BME280;8335;42.646;23.380;2022-11-28T04:45:52;94899.59;;;2.20;100.00
8280;BME280;8335;42.646;23.380;2022-11-28T04:48:19;94901.31;;;2.18;100.00
8280;BME280;8335;42.646;23.380;2022-11-28T04:50:49;94888.72;;;2.22;100.00
8280;BME280;8335;42.646;23.380;2022-11-28T04:53:25;94901.22;;;2.25;100.00
8280;BME280;8335;42.646;23.380;2022-11-28T04:55:57;94901.22;;;2.25;100.00
8280;BME280;8335;42.646;23.380;2022-11-28T04:58:30;94902.88;;;2.26;100.00
8280;BME280;8335;42.646;23.380;2022-11-28T05:01:01;94905.44;;;2.23;100.00
8280;BME280;8335;42.646;23.380;2022-11-28T05:03:30;94910.41;;;2.26;100.00
8280;BME280;8335;42.646;23.380;2022-11-28T05:05:57;94910.41;;;2.26;100.00
8280;BME280;8335;42.646;23.380;2022-11-28T05:08:25;94904.63;;;2.20;100.00
8280;BME280;8335;42.646;23.380;2022-11-28T05:10:52;94913.88;;;2.18;100.00
8280;BME280;8335;42.646;23.380;2022-11-28T05:13:19;94903.81;;;2.18;100.00
8280;BME280;8335;42.646;23.380;2022-11-28T05:15:45;94913.84;;;2.20;100.00
8280;BME280;8335;42.646;23.380;2022-11-28T05:18:12;94912.19;;;2.19;100.00
8280;BME280;8335;42.646;23.380;2022-11-28T05:20:39;94904.66;;;2.19;100.00
8280;BME280;8335;42.646;23.380;2022-11-28T05:23:06;94902.09;;;2.20;100.00
8280;BME280;8335;42.646;23.380;2022-11-28T05:25:36;94898.84;;;2.14;100.00
8280;BME280;8335;42.646;23.380;2022-11-28T05:28:03;94899.72;;;2.11;100.00
8280;BME280;8335;42.646;23.380;2022-11-28T05:30:30;94889.69;;;2.10;100.00
8280;BME280;8335;42.646;23.380;2022-11-28T05:32:57;94890.47;;;2.13;100.00
8280;BME280;8335;42.646;23.380;2022-11-28T05:35:24;94896.31;;;2.17;100.00
8280;BME280;8335;42.646;23.380;2022-11-28T05:37:50;94903.78;;;2.20;100.00
8280;BME280;8335;42.646;23.380;2022-11-28T05:40:17;94892.88;;;2.21;100.00
8280;BME280;8335;42.646;23.380;2022-11-28T05:42:46;94898.72;;;2.25;100.00
8280;BME280;8335;42.646;23.380;2022-11-28T05:45:12;94898.69;;;2.26;100.00
8280;BME280;8335;42.646;23.380;2022-11-28T05:47:39;94905.41;;;2.26;100.00
8280;BME280;8335;42.646;23.380;2022-11-28T05:50:06;94896.97;;;2.30;100.00
8280;BME280;8335;42.646;23.380;2022-11-28T05:52:33;94888.59;;;2.31;100.00
8280;BME280;8335;42.646;23.380;2022-11-28T05:55:00;94897.81;;;2.30;100.00
8280;BME280;8335;42.646;23.380;2022-11-28T05:57:27;94890.19;;;2.35;100.00
8280;BME280;8335;42.646;23.380;2022-11-28T05:59:57;94886.09;;;2.28;100.00
8280;BME280;8335;42.646;23.380;2022-11-28T06:02:25;94879.44;;;2.25;100.00
8280;BME280;8335;42.646;23.380;2022-11-28T06:04:51;94888.50;;;2.35;100.00
8280;BME280;8335;42.646;23.380;2022-11-28T06:07:18;94888.47;;;2.38;100.00
8280;BME280;8335;42.646;23.380;2022-11-28T06:09:45;94880.13;;;2.35;100.00
8280;BME280;8335;42.646;23.380;2022-11-28T06:12:11;94885.19;;;2.33;100.00
8280;BME280;8335;42.646;23.380;2022-11-28T06:14:38;94880.13;;;2.35;100.00
8280;BME280;8335;42.646;23.380;2022-11-28T06:17:06;94888.34;;;2.47;100.00
8280;BME280;8335;42.646;23.380;2022-11-28T06:19:33;94889.97;;;2.52;100.00
8280;BME280;8335;42.646;23.380;2022-11-28T06:22:00;94888.22;;;2.55;100.00
8280;BME280;8335;42.646;23.380;2022-11-28T06:24:27;94886.53;;;2.56;100.00
8280;BME280;8335;42.646;23.380;2022-11-28T06:26:53;94893.16;;;2.63;100.00
8280;BME280;8335;42.646;23.380;2022-11-28T06:29:20;94893.97;;;2.65;100.00
8280;BME280;8335;42.646;23.380;2022-11-28T06:31:47;94884.81;;;2.61;100.00
8280;BME280;8335;42.646;23.380;2022-11-28T06:34:15;94893.16;;;2.63;100.00
8280;BME280;8335;42.646;23.380;2022-11-28T06:36:43;94888.09;;;2.66;100.00
8280;BME280;8335;42.646;23.380;2022-11-28T06:39:11;94873.97;;;2.57;100.00
8280;BME280;8335;42.646;23.380;2022-11-28T06:41:39;94889.72;;;2.68;100.00
8280;BME280;8335;42.646;23.380;2022-11-28T06:44:06;94882.28;;;2.61;100.00
8280;BME280;8335;42.646;23.380;2022-11-28T06:46:33;94873.97;;;2.57;100.00
8280;BME280;8335;42.646;23.380;2022-11-28T06:48:59;94878.97;;;2.59;100.00
8280;BME280;8335;42.646;23.380;2022-11-28T06:51:28;94878.88;;;2.63;100.00
8280;BME280;8335;42.646;23.380;2022-11-28T06:53:54;94878.00;;;2.67;100.00
8280;BME280;8335;42.646;23.380;2022-11-28T06:56:22;94879.50;;;2.78;100.00
8280;BME280;8335;42.646;23.380;2022-11-28T06:58:53;94876.91;;;2.84;100.00
8280;BME280;8335;42.646;23.380;2022-11-28T07:01:21;94868.63;;;2.77;100.00
8280;BME280;8335;42.646;23.380;2022-11-28T07:03:48;94876.03;;;2.88;100.00
8280;BME280;8335;42.646;23.380;2022-11-28T07:06:17;94868.50;;;2.86;100.00
8280;BME280;8335;42.646;23.380;2022-11-28T07:08:46;94871.75;;;2.91;100.00
8280;BME280;8335;42.646;23.380;2022-11-28T07:11:15;94880.84;;;3.01;100.00
8280;BME280;8335;42.646;23.380;2022-11-28T07:13:43;94884.88;;;3.10;100.00
8280;BME280;8335;42.646;23.380;2022-11-28T07:16:13;94884.06;;;3.07;100.00
8280;BME280;8335;42.646;23.380;2022-11-28T07:18:40;94884.28;;;2.94;100.00
8280;BME280;8335;42.646;23.380;2022-11-28T07:21:07;94875.25;;;2.83;100.00
8280;BME280;8335;42.646;23.380;2022-11-28T07:23:34;94882.00;;;2.81;100.00
8280;BME280;8335;42.646;23.380;2022-11-28T07:26:03;94882.66;;;2.90;100.00
8280;BME280;8335;42.646;23.380;2022-11-28T07:28:32;94886.03;;;2.89;100.00
8280;BME280;8335;42.646;23.380;2022-11-28T07:31:01;94888.69;;;2.82;100.00
8280;BME280;8335;42.646;23.380;2022-11-28T07:33:28;94886.09;;;2.88;100.00
8280;BME280;8335;42.646;23.380;2022-11-28T07:35:59;94875.91;;;2.95;100.00
8280;BME280;8335;42.646;23.380;2022-11-28T07:38:26;94884.25;;;2.97;100.00
8280;BME280;8335;42.646;23.380;2022-11-28T07:40:53;94876.66;;;2.99;100.00
8280;BME280;8335;42.646;23.380;2022-11-28T07:43:21;94877.28;;;3.12;100.00
8280;BME280;8335;42.646;23.380;2022-11-28T07:45:48;94881.41;;;3.17;100.00
8280;BME280;8335;42.646;23.380;2022-11-28T07:48:14;94850.78;;;2.94;100.00
8280;BME280;8335;42.646;23.380;2022-11-28T07:50:41;94876.69;;;2.97;100.00
8280;BME280;8335;42.646;23.380;2022-11-28T07:53:08;94872.47;;;2.99;100.00
8280;BME280;8335;42.646;23.380;2022-11-28T07:55:35;94873.06;;;3.15;100.00
8280;BME280;8335;42.646;23.380;2022-11-28T07:58:02;94872.09;;;3.21;100.00
8280;BME280;8335;42.646;23.380;2022-11-28T08:00:30;94871.19;;;3.25;100.00
8280;BME280;8335;42.646;23.380;2022-11-28T08:02:57;94874.69;;;3.18;100.00
8280;BME280;8335;42.646;23.380;2022-11-28T08:05:24;94876.31;;;3.20;100.00
8280;BME280;8335;42.646;23.380;2022-11-28T08:07:51;94873.47;;;3.39;100.00
8280;BME280;8335;42.646;23.380;2022-11-28T08:10:18;94879.41;;;3.35;100.00
8280;BME280;8335;42.646;23.380;2022-11-28T08:12:45;94875.06;;;3.44;100.00
8280;BME280;8335;42.646;23.380;2022-11-28T08:15:12;94876.97;;;3.31;100.00
8280;BME280;8335;42.646;23.380;2022-11-28T08:17:40;94871.00;;;3.37;100.00
8280;BME280;8335;42.646;23.380;2022-11-28T08:20:07;94864.19;;;3.41;100.00
8280;BME280;8335;42.646;23.380;2022-11-28T08:22:34;94867.13;;;3.64;100.00
8280;BME280;8335;42.646;23.380;2022-11-28T08:25:01;94864.31;;;3.78;100.00
8280;BME280;8335;42.646;23.380;2022-11-28T08:27:28;94867.00;;;3.72;100.00
8280;BME280;8335;42.646;23.380;2022-11-28T08:29:55;94875.63;;;3.58;100.00
8280;BME280;8335;42.646;23.380;2022-11-28T08:32:21;94867.19;;;3.61;100.00
8280;BME280;8335;42.646;23.380;2022-11-28T08:34:49;94863.50;;;3.77;100.00
8280;BME280;8335;42.646;23.380;2022-11-28T08:37:16;94867.25;;;4.00;100.00
8280;BME280;8335;42.646;23.380;2022-11-28T08:39:43;94861.97;;;4.12;100.00
8280;BME280;8335;42.646;23.380;2022-11-28T08:42:10;94865.00;;;4.28;100.00
8280;BME280;8335;42.646;23.380;2022-11-28T08:44:36;94863.16;;;4.36;100.00
8280;BME280;8335;42.646;23.380;2022-11-28T08:47:03;94862.03;;;4.48;100.00
8280;BME280;8335;42.646;23.380;2022-11-28T08:49:30;94855.59;;;4.34;100.00
8280;BME280;8335;42.646;23.380;2022-11-28T08:51:58;94856.34;;;3.99;100.00
8280;BME280;8335;42.646;23.380;2022-11-28T08:54:25;94851.75;;;3.78;100.00
8280;BME280;8335;42.646;23.380;2022-11-28T08:56:52;94846.13;;;3.65;100.00
8280;BME280;8335;42.646;23.380;2022-11-28T08:59:18;94850.41;;;3.60;100.00
8280;BME280;8335;42.646;23.380;2022-11-28T09:01:45;94843.72;;;3.59;100.00
8280;BME280;8335;42.646;23.380;2022-11-28T09:04:12;94840.78;;;3.80;100.00
8280;BME280;8335;42.646;23.380;2022-11-28T09:06:39;94835.41;;;3.97;100.00
8280;BME280;8335;42.646;23.380;2022-11-28T09:09:07;94842.50;;;4.19;100.00
8280;BME280;8335;42.646;23.380;2022-11-28T09:11:35;94833.97;;;4.26;100.00
8280;BME280;8335;42.646;23.380;2022-11-28T09:14:02;94834.88;;;4.23;100.00
8280;BME280;8335;42.646;23.380;2022-11-28T09:16:29;94826.22;;;4.33;100.00
8280;BME280;8335;42.646;23.380;2022-11-28T09:18:56;94817.63;;;4.42;100.00
8280;BME280;8335;42.646;23.380;2022-11-28T09:21:24;94805.13;;;4.37;100.00
8280;BME280;8335;42.646;23.380;2022-11-28T09:23:54;94814.91;;;4.51;100.00
8280;BME280;8335;42.646;23.380;2022-11-28T09:26:23;94818.13;;;4.56;100.00
8280;BME280;8335;42.646;23.380;2022-11-28T09:28:50;94811.94;;;4.69;100.00
8280;BME280;8335;42.646;23.380;2022-11-28T09:31:18;94810.88;;;4.80;100.00
8280;BME280;8335;42.646;23.380;2022-11-28T09:33:45;94806.47;;;4.88;100.00
8280;BME280;8335;42.646;23.380;2022-11-28T09:36:15;94798.31;;;5.11;98.58
8280;BME280;8335;42.646;23.380;2022-11-28T09:38:42;94804.84;;;5.50;96.57
8280;BME280;8335;42.646;23.380;2022-11-28T09:41:30;94790.41;;;5.84;97.33
8280;BME280;8335;42.646;23.380;2022-11-28T09:44:01;94791.72;;;5.98;95.11
8280;BME280;8335;42.646;23.380;2022-11-28T09:46:31;94792.47;;;6.30;92.59
8280;BME280;8335;42.646;23.380;2022-11-28T09:49:03;94783.94;;;6.60;91.44
8280;BME280;8335;42.646;23.380;2022-11-28T09:51:35;94778.13;;;6.83;88.22
8280;BME280;8335;42.646;23.380;2022-11-28T09:54:07;94765.91;;;6.96;87.97
8280;BME280;8335;42.646;23.380;2022-11-28T09:56:39;94757.63;;;6.91;88.47
8280;BME280;8335;42.646;23.380;2022-11-28T09:59:13;94763.00;;;7.07;87.08
8280;BME280;8335;42.646;23.380;2022-11-28T10:01:50;94768.00;;;6.83;84.63
8280;BME280;8335;42.646;23.380;2022-11-28T10:04:26;94766.84;;;6.92;83.63
8280;BME280;8335;42.646;23.380;2022-11-28T10:07:02;94761.34;;;6.81;84.36
8280;BME280;8335;42.646;23.380;2022-11-28T10:09:37;94765.56;;;6.27;85.90
8280;BME280;8335;42.646;23.380;2022-11-28T10:12:22;94757.09;;;5.71;89.12
8280;BME280;8335;42.646;23.380;2022-11-28T10:15:05;94762.06;;;5.44;90.74
8280;BME280;8335;42.646;23.380;2022-11-28T10:17:43;94764.34;;;5.53;91.79
8280;BME280;8335;42.646;23.380;2022-11-28T10:20:18;94761.91;;;5.80;89.84
8280;BME280;8335;42.646;23.380;2022-11-28T10:22:49;94763.44;;;6.14;85.79
8280;BME280;8335;42.646;23.380;2022-11-28T10:25:19;94766.78;;;6.42;85.21
8280;BME280;8335;42.646;23.380;2022-11-28T10:27:49;94764.13;;;6.73;85.08
8280;BME280;8335;42.646;23.380;2022-11-28T10:30:21;94751.47;;;6.98;83.51
8280;BME280;8335;42.646;23.380;2022-11-28T10:32:56;94735.13;;;7.32;82.45
8280;BME280;8335;42.646;23.380;2022-11-28T10:35:31;94725.28;;;7.48;82.18
8280;BME280;8335;42.646;23.380;2022-11-28T10:38:01;94733.25;;;8.06;79.87
8280;BME280;8335;42.646;23.380;2022-11-28T10:40:33;94740.53;;;8.59;78.02
8280;BME280;8335;42.646;23.380;2022-11-28T10:43:12;94740.50;;;8.80;74.61
8280;BME280;8335;42.646;23.380;2022-11-28T10:45:47;94743.91;;;9.00;73.62
8280;BME280;8335;42.646;23.380;2022-11-28T10:48:25;94748.38;;;8.95;74.39
8280;BME280;8335;42.646;23.380;2022-11-28T10:51:03;94744.22;;;8.72;74.97
8280;BME280;8335;42.646;23.380;2022-11-28T10:53:41;94739.25;;;8.69;74.32
8280;BME280;8335;42.646;23.380;2022-11-28T10:56:17;94734.28;;;8.45;74.91
8280;BME280;8335;42.646;23.380;2022-11-28T10:58:53;94726.47;;;8.06;76.33
8280;BME280;8335;42.646;23.380;2022-11-28T11:01:26;94727.88;;;7.91;76.54
8280;BME280;8335;42.646;23.380;2022-11-28T11:03:54;94729.47;;;7.72;77.52
8280;BME280;8335;42.646;23.380;2022-11-28T11:06:24;94722.59;;;7.52;78.61
8280;BME280;8335;42.646;23.380;2022-11-28T11:08:50;94728.00;;;7.43;78.81
8280;BME280;8335;42.646;23.380;2022-11-28T11:11:23;94719.88;;;7.33;79.74
8280;BME280;8335;42.646;23.380;2022-11-28T11:13:59;94724.81;;;7.13;79.09
8280;BME280;8335;42.646;23.380;2022-11-28T11:16:45;94712.84;;;6.93;79.59
8280;BME280;8335;42.646;23.380;2022-11-28T11:19:22;94712.72;;;6.96;77.11
8280;BME280;8335;42.646;23.380;2022-11-28T11:21:58;94711.63;;;6.78;78.25
8280;BME280;8335;42.646;23.380;2022-11-28T11:24:26;94699.22;;;6.72;79.21
8280;BME280;8335;42.646;23.380;2022-11-28T11:26:53;94694.97;;;6.73;78.76
8280;BME280;8335;42.646;23.380;2022-11-28T11:29:28;94690.81;;;6.72;80.57
8280;BME280;8335;42.646;23.380;2022-11-28T11:31:56;94656.91;;;6.51;81.30
8280;BME280;8335;42.646;23.380;2022-11-28T11:34:31;94692.13;;;6.82;81.74
8280;BME280;8335;42.646;23.380;2022-11-28T11:37:17;94684.28;;;6.89;81.70
8280;BME280;8335;42.646;23.380;2022-11-28T11:39:49;94693.09;;;7.03;80.08
8280;BME280;8335;42.646;23.380;2022-11-28T11:42:20;94686.22;;;7.06;78.78
8280;BME280;8335;42.646;23.380;2022-11-28T11:44:49;94690.16;;;7.15;78.58
8280;BME280;8335;42.646;23.380;2022-11-28T11:47:16;94676.91;;;7.07;78.04
8280;BME280;8335;42.646;23.380;2022-11-28T11:49:49;94673.25;;;6.90;78.14
8280;BME280;8335;42.646;23.380;2022-11-28T11:52:27;94683.59;;;6.84;78.63
8280;BME280;8335;42.646;23.380;2022-11-28T11:54:57;94674.78;;;6.46;80.52
8280;BME280;8335;42.646;23.380;2022-11-28T11:57:31;94670.47;;;6.48;81.37
8280;BME280;8335;42.646;23.380;2022-11-28T12:00:03;94672.25;;;6.46;80.74
8280;BME280;8335;42.646;23.380;2022-11-28T12:02:35;94673.06;;;6.47;80.82
8280;BME280;8335;42.646;23.380;2022-11-28T12:05:07;94647.25;;;6.37;81.54
8280;BME280;8335;42.646;23.380;2022-11-28T12:07:39;94676.78;;;6.37;83.31
8280;BME280;8335;42.646;23.380;2022-11-28T12:10:13;94667.59;;;6.07;84.55
8280;BME280;8335;42.646;23.380;2022-11-28T12:12:41;94670.97;;;6.06;84.00
8280;BME280;8335;42.646;23.380;2022-11-28T12:15:16;94662.97;;;5.94;85.63
8280;BME280;8335;42.646;23.380;2022-11-28T12:18:01;94659.47;;;5.98;86.49
8280;BME280;8335;42.646;23.380;2022-11-28T12:20:39;94665.09;;;6.06;86.37
8280;BME280;8335;42.646;23.380;2022-11-28T12:23:21;94659.84;;;6.12;84.13
8280;BME280;8335;42.646;23.380;2022-11-28T12:25:53;94644.06;;;6.05;83.88
8280;BME280;8335;42.646;23.380;2022-11-28T12:28:32;94658.00;;;6.17;84.12
8280;BME280;8335;42.646;23.380;2022-11-28T12:31:13;94661.13;;;6.25;84.06
8280;BME280;8335;42.646;23.380;2022-11-28T12:33:52;94659.56;;;6.21;83.46
8280;BME280;8335;42.646;23.380;2022-11-28T12:36:28;94658.97;;;6.13;83.77
8280;BME280;8335;42.646;23.380;2022-11-28T12:39:11;94670.97;;;6.08;83.92
8280;BME280;8335;42.646;23.380;2022-11-28T12:42:00;94660.09;;;6.04;83.45
8280;BME280;8335;42.646;23.380;2022-11-28T12:44:44;94665.06;;;6.07;83.05
8280;BME280;8335;42.646;23.380;2022-11-28T12:47:19;94660.72;;;6.11;83.37
8280;BME280;8335;42.646;23.380;2022-11-28T12:49:56;94669.06;;;6.15;84.72
8280;BME280;8335;42.646;23.380;2022-11-28T12:52:32;94666.81;;;6.05;86.00
8280;BME280;8335;42.646;23.380;2022-11-28T12:55:22;94664.69;;;5.92;86.29
8280;BME280;8335;42.646;23.380;2022-11-28T12:57:56;94676.66;;;5.85;86.50
8280;BME280;8335;42.646;23.380;2022-11-28T13:00:27;94673.28;;;5.86;86.45
8280;BME280;8335;42.646;23.380;2022-11-28T13:03:05;94676.53;;;5.90;86.77
8280;BME280;8335;42.646;23.380;2022-11-28T13:05:42;94686.06;;;5.82;86.69
8280;BME280;8335;42.646;23.380;2022-11-28T13:11:14;94625.72;;;5.43;88.26
8280;BME280;8335;42.646;23.380;2022-11-28T13:13:46;94679.53;;;5.74;88.03
8280;BME280;8335;42.646;23.380;2022-11-28T13:16:21;94675.47;;;5.69;88.13
8280;BME280;8335;42.646;23.380;2022-11-28T13:18:57;94682.00;;;5.76;87.54
8280;BME280;8335;42.646;23.380;2022-11-28T13:21:34;94679.81;;;5.65;88.40
8280;BME280;8335;42.646;23.380;2022-11-28T13:24:09;94672.41;;;5.59;88.62
8280;BME280;8335;42.646;23.380;2022-11-28T13:26:46;94680.59;;;5.67;89.04
8280;BME280;8335;42.646;23.380;2022-11-28T13:29:22;94688.03;;;5.72;88.68
8280;BME280;8335;42.646;23.380;2022-11-28T13:31:56;94688.06;;;5.70;88.15
8280;BME280;8335;42.646;23.380;2022-11-28T13:34:27;94683.13;;;5.67;88.69
8280;BME280;8335;42.646;23.380;2022-11-28T13:36:58;94688.22;;;5.66;88.34
8280;BME280;8335;42.646;23.380;2022-11-28T13:39:34;94685.72;;;5.64;88.75
8280;BME280;8335;42.646;23.380;2022-11-28T13:42:14;94694.88;;;5.68;87.53
8280;BME280;8335;42.646;23.380;2022-11-28T13:44:51;94696.78;;;5.60;88.42